KLM57B EHRD-EDDL
Flight info
| Callsign | KLM57B |
|---|---|
| Flight time | 0h 24m |
| Altitude | 15000 |
| Route | ARNEM T196 TEBRO P62 PISAP PISAP1A |
| Aircraft | A20N/M-SDE2E3FGHIRWXY/LB1 |
Departure
| Time | 2026-05-05 13:34 |
|---|---|
| Airport | Rotterdam The Hague Airport (EHRD) |
Arrival
| Time | 2026-05-05 13:58 |
|---|---|
| Airport | Düsseldorf Airport (EDDL) |
| Time | Latitude | Longitude | Altitude | Speed | Heading |
|---|---|---|---|---|---|
| 2026-05-05 13:10 | 51.95188 | 4.43405 | -4 ft | 0 kts | 327° |
| 2026-05-05 13:28 | 51.95193 | 4.43399 | -4 ft | 3 kts | 328° |
| 2026-05-05 13:28 | 51.95217 | 4.43357 | -4 ft | 6 kts | 279° |
| 2026-05-05 13:28 | 51.95192 | 4.43271 | -3 ft | 8 kts | 234° |
| 2026-05-05 13:28 | 51.95155 | 4.43178 | -3 ft | 10 kts | 243° |
| 2026-05-05 13:29 | 51.95126 | 4.43080 | -5 ft | 3 kts | 244° |
| 2026-05-05 13:29 | 51.95119 | 4.43054 | -6 ft | 1 kts | 245° |
| 2026-05-05 13:29 | 51.95117 | 4.43047 | -6 ft | 0 kts | 246° |
| 2026-05-05 13:31 | 51.95113 | 4.43030 | -6 ft | 4 kts | 249° |
| 2026-05-05 13:32 | 51.95116 | 4.42957 | -7 ft | 8 kts | 298° |
| 2026-05-05 13:32 | 51.95166 | 4.42890 | -7 ft | 10 kts | 329° |
| 2026-05-05 13:32 | 51.95225 | 4.42866 | -7 ft | 8 kts | 34° |
| 2026-05-05 13:32 | 51.95245 | 4.42915 | -6 ft | 0 kts | 58° |
| 2026-05-05 13:33 | 51.95246 | 4.42917 | -6 ft | 0 kts | 58° |
| 2026-05-05 13:33 | 51.95311 | 4.43085 | -5 ft | 53 kts | 56° |
| 2026-05-05 13:34 | 51.95649 | 4.43945 | -6 ft | 124 kts | 54° |
| 2026-05-05 13:34 | 51.96692 | 4.46619 | 626 ft | 173 kts | 58° |
| 2026-05-05 13:34 | 51.97224 | 4.48211 | 1621 ft | 164 kts | 59° |
| 2026-05-05 13:35 | 51.97760 | 4.49815 | 2373 ft | 170 kts | 59° |
| 2026-05-05 13:35 | 51.98311 | 4.51452 | 3002 ft | 182 kts | 59° |
| 2026-05-05 13:35 | 51.98930 | 4.53287 | 3459 ft | 203 kts | 59° |
| 2026-05-05 13:35 | 51.99628 | 4.55345 | 3997 ft | 221 kts | 58° |
| 2026-05-05 13:36 | 52.00585 | 4.57337 | 4545 ft | 238 kts | 40° |
| 2026-05-05 13:36 | 52.02020 | 4.58792 | 5132 ft | 255 kts | 25° |
| 2026-05-05 13:36 | 52.03573 | 4.60150 | 5874 ft | 265 kts | 38° |
| 2026-05-05 13:36 | 52.04596 | 4.62523 | 6734 ft | 271 kts | 72° |
| 2026-05-05 13:37 | 52.04646 | 4.65485 | 7668 ft | 274 kts | 102° |
| 2026-05-05 13:37 | 52.04162 | 4.68419 | 8548 ft | 279 kts | 104° |
| 2026-05-05 13:37 | 52.03556 | 4.72447 | 9715 ft | 285 kts | 102° |
| 2026-05-05 13:37 | 52.03270 | 4.74527 | 10297 ft | 287 kts | 101° |
| 2026-05-05 13:38 | 52.02851 | 4.77738 | 10873 ft | 302 kts | 101° |
| 2026-05-05 13:38 | 52.02430 | 4.81122 | 11352 ft | 320 kts | 100° |
| 2026-05-05 13:38 | 52.01991 | 4.84735 | 11822 ft | 339 kts | 100° |
| 2026-05-05 13:38 | 52.01529 | 4.88583 | 12190 ft | 357 kts | 100° |
| 2026-05-05 13:39 | 52.01045 | 4.92649 | 12558 ft | 375 kts | 100° |
| 2026-05-05 13:39 | 52.00543 | 4.96862 | 12846 ft | 393 kts | 100° |
| 2026-05-05 13:39 | 52.00019 | 5.01256 | 13306 ft | 404 kts | 100° |
| 2026-05-05 13:39 | 51.99478 | 5.05770 | 14019 ft | 408 kts | 100° |
| 2026-05-05 13:40 | 51.98777 | 5.10189 | 14646 ft | 413 kts | 111° |
| 2026-05-05 13:40 | 51.97255 | 5.14147 | 14883 ft | 415 kts | 129° |
| 2026-05-05 13:40 | 51.95303 | 5.17574 | 14901 ft | 415 kts | 133° |
| 2026-05-05 13:40 | 51.93306 | 5.20858 | 14899 ft | 415 kts | 134° |
| 2026-05-05 13:41 | 51.91290 | 5.24221 | 14901 ft | 415 kts | 133° |
| 2026-05-05 13:41 | 51.89320 | 5.27595 | 14888 ft | 414 kts | 132° |
| 2026-05-05 13:41 | 51.87360 | 5.31015 | 14879 ft | 415 kts | 131° |
| 2026-05-05 13:41 | 51.85416 | 5.34447 | 14901 ft | 414 kts | 131° |
| 2026-05-05 13:42 | 51.83503 | 5.37847 | 14878 ft | 413 kts | 131° |
| 2026-05-05 13:42 | 51.81561 | 5.41311 | 14878 ft | 414 kts | 131° |
| 2026-05-05 13:42 | 51.79646 | 5.44732 | 14882 ft | 413 kts | 131° |
| 2026-05-05 13:42 | 51.77732 | 5.48149 | 14887 ft | 413 kts | 131° |
| 2026-05-05 13:43 | 51.75812 | 5.51577 | 14901 ft | 412 kts | 131° |
| 2026-05-05 13:43 | 51.73895 | 5.54995 | 14896 ft | 413 kts | 131° |
| 2026-05-05 13:43 | 51.71973 | 5.58416 | 14395 ft | 412 kts | 131° |
| 2026-05-05 13:43 | 51.70067 | 5.61806 | 13764 ft | 408 kts | 131° |
| 2026-05-05 13:44 | 51.68194 | 5.65136 | 13182 ft | 402 kts | 131° |
| 2026-05-05 13:44 | 51.66326 | 5.68454 | 12561 ft | 398 kts | 131° |
| 2026-05-05 13:44 | 51.64507 | 5.71677 | 12093 ft | 388 kts | 131° |
| 2026-05-05 13:44 | 51.62700 | 5.74876 | 11643 ft | 379 kts | 131° |
| 2026-05-05 13:45 | 51.60956 | 5.77958 | 11195 ft | 371 kts | 132° |
| 2026-05-05 13:45 | 51.59241 | 5.80982 | 10826 ft | 360 kts | 132° |
| 2026-05-05 13:45 | 51.57593 | 5.83882 | 10627 ft | 347 kts | 132° |
| 2026-05-05 13:45 | 51.56007 | 5.86672 | 10441 ft | 333 kts | 132° |
| 2026-05-05 13:46 | 51.54477 | 5.89362 | 10296 ft | 319 kts | 132° |
| 2026-05-05 13:46 | 51.53016 | 5.91930 | 10177 ft | 306 kts | 132° |
| 2026-05-05 13:46 | 51.51620 | 5.94381 | 10060 ft | 294 kts | 132° |
| 2026-05-05 13:46 | 51.50268 | 5.96755 | 9970 ft | 281 kts | 132° |
| 2026-05-05 13:47 | 51.48980 | 5.99011 | 9799 ft | 273 kts | 132° |
| 2026-05-05 13:47 | 51.47693 | 6.01265 | 9447 ft | 273 kts | 132° |
| 2026-05-05 13:47 | 51.46416 | 6.03502 | 9121 ft | 271 kts | 133° |
| 2026-05-05 13:47 | 51.45155 | 6.05706 | 8806 ft | 270 kts | 132° |
| 2026-05-05 13:48 | 51.43890 | 6.07912 | 8492 ft | 268 kts | 132° |
| 2026-05-05 13:48 | 51.42647 | 6.10080 | 8175 ft | 266 kts | 132° |
| 2026-05-05 13:48 | 51.41408 | 6.12242 | 7860 ft | 264 kts | 132° |
| 2026-05-05 13:48 | 51.40157 | 6.14421 | 7546 ft | 263 kts | 132° |
| 2026-05-05 13:49 | 51.38938 | 6.16542 | 7247 ft | 261 kts | 132° |
| 2026-05-05 13:49 | 51.37722 | 6.18661 | 6951 ft | 259 kts | 133° |
| 2026-05-05 13:49 | 51.36515 | 6.20758 | 6653 ft | 258 kts | 133° |
| 2026-05-05 13:49 | 51.35309 | 6.22849 | 6360 ft | 256 kts | 132° |
| 2026-05-05 13:50 | 51.34103 | 6.24939 | 6064 ft | 255 kts | 132° |
| 2026-05-05 13:50 | 51.32904 | 6.27013 | 5775 ft | 253 kts | 131° |
| 2026-05-05 13:50 | 51.31713 | 6.29076 | 5482 ft | 252 kts | 131° |
| 2026-05-05 13:50 | 51.30535 | 6.31113 | 5196 ft | 251 kts | 131° |
| 2026-05-05 13:51 | 51.29365 | 6.33140 | 4912 ft | 250 kts | 131° |
| 2026-05-05 13:51 | 51.28188 | 6.35175 | 4624 ft | 249 kts | 131° |
| 2026-05-05 13:51 | 51.27016 | 6.37200 | 4344 ft | 248 kts | 131° |
| 2026-05-05 13:51 | 51.25853 | 6.39210 | 4065 ft | 247 kts | 131° |
| 2026-05-05 13:52 | 51.24685 | 6.41220 | 3785 ft | 246 kts | 131° |
| 2026-05-05 13:52 | 51.23528 | 6.43212 | 3508 ft | 245 kts | 130° |
| 2026-05-05 13:52 | 51.21993 | 6.45854 | 3160 ft | 242 kts | 130° |
| 2026-05-05 13:52 | 51.21235 | 6.47153 | 3132 ft | 234 kts | 130° |
| 2026-05-05 13:53 | 51.20181 | 6.48963 | 3100 ft | 220 kts | 130° |
| 2026-05-05 13:53 | 51.19163 | 6.50708 | 3069 ft | 207 kts | 130° |
| 2026-05-05 13:53 | 51.18359 | 6.52444 | 3083 ft | 185 kts | 107° |
| 2026-05-05 13:53 | 51.18330 | 6.54319 | 3015 ft | 162 kts | 70° |
| 2026-05-05 13:54 | 51.18771 | 6.55831 | 2997 ft | 143 kts | 56° |
| 2026-05-05 13:54 | 51.19330 | 6.57127 | 2938 ft | 142 kts | 51° |
| 2026-05-05 13:54 | 51.19931 | 6.58370 | 2758 ft | 141 kts | 50° |
| 2026-05-05 13:54 | 51.20535 | 6.59606 | 2564 ft | 141 kts | 50° |
| 2026-05-05 13:55 | 51.21131 | 6.60844 | 2376 ft | 140 kts | 51° |
| 2026-05-05 13:55 | 51.21714 | 6.62065 | 2193 ft | 140 kts | 50° |
| 2026-05-05 13:55 | 51.22294 | 6.63289 | 2010 ft | 139 kts | 50° |
| 2026-05-05 13:55 | 51.22881 | 6.64528 | 1845 ft | 138 kts | 50° |
| 2026-05-05 13:56 | 51.23460 | 6.65749 | 1658 ft | 138 kts | 51° |
| 2026-05-05 13:56 | 51.24026 | 6.66984 | 1464 ft | 138 kts | 51° |
| 2026-05-05 13:56 | 51.24596 | 6.68192 | 1261 ft | 137 kts | 49° |
| 2026-05-05 13:56 | 51.25184 | 6.69398 | 1046 ft | 137 kts | 50° |
| 2026-05-05 13:57 | 51.25763 | 6.70592 | 858 ft | 137 kts | 49° |
| 2026-05-05 13:57 | 51.26358 | 6.71783 | 682 ft | 137 kts | 50° |
| 2026-05-05 13:57 | 51.26926 | 6.72991 | 519 ft | 137 kts | 51° |
| 2026-05-05 13:57 | 51.27488 | 6.74215 | 331 ft | 136 kts | 50° |
| 2026-05-05 13:58 | 51.28060 | 6.75413 | 165 ft | 135 kts | 50° |
| 2026-05-05 13:58 | 51.28592 | 6.76522 | 124 ft | 107 kts | 53° |
| 2026-05-05 13:58 | 51.28937 | 6.77247 | 124 ft | 57 kts | 53° |
| 2026-05-05 13:58 | 51.29127 | 6.77646 | 123 ft | 39 kts | 52° |
| 2026-05-05 13:59 | 51.29271 | 6.78172 | 129 ft | 19 kts | 137° |
| 2026-05-05 13:59 | 51.29216 | 6.78215 | 129 ft | 0 kts | 177° |
| 2026-05-05 14:00 | 51.29162 | 6.78180 | 127 ft | 8 kts | 225° |
| 2026-05-05 14:00 | 51.29121 | 6.78102 | 127 ft | 10 kts | 233° |
| 2026-05-05 14:00 | 51.29071 | 6.77998 | 127 ft | 13 kts | 232° |
| 2026-05-05 14:00 | 51.29017 | 6.77882 | 124 ft | 12 kts | 234° |
| 2026-05-05 14:01 | 51.28965 | 6.77770 | 124 ft | 11 kts | 232° |
| 2026-05-05 14:01 | 51.28926 | 6.77692 | 124 ft | 9 kts | 233° |
| 2026-05-05 14:01 | 51.28872 | 6.77578 | 123 ft | 17 kts | 232° |
| 2026-05-05 14:01 | 51.28782 | 6.77388 | 124 ft | 24 kts | 232° |
| 2026-05-05 14:02 | 51.28669 | 6.77153 | 123 ft | 27 kts | 232° |
| 2026-05-05 14:02 | 51.28557 | 6.76919 | 126 ft | 25 kts | 233° |
| 2026-05-05 14:02 | 51.28455 | 6.76701 | 124 ft | 24 kts | 233° |
| 2026-05-05 14:02 | 51.28359 | 6.76504 | 124 ft | 17 kts | 232° |
| 2026-05-05 14:03 | 51.28294 | 6.76365 | 122 ft | 16 kts | 233° |
| 2026-05-05 14:03 | 51.28226 | 6.76219 | 121 ft | 17 kts | 231° |
| 2026-05-05 14:03 | 51.28149 | 6.76061 | 118 ft | 17 kts | 229° |
| 2026-05-05 14:03 | 51.28048 | 6.76046 | 118 ft | 15 kts | 179° |
| 2026-05-05 14:04 | 51.27938 | 6.76046 | 119 ft | 15 kts | 180° |
| 2026-05-05 14:04 | 51.27846 | 6.76081 | 121 ft | 12 kts | 124° |
| 2026-05-05 14:04 | 51.27840 | 6.76211 | 125 ft | 10 kts | 90° |
| 2026-05-05 14:04 | 51.27840 | 6.76305 | 129 ft | 5 kts | 89° |
| 2026-05-05 14:05 | 51.27846 | 6.76351 | 130 ft | 3 kts | 61° |
| 2026-05-05 14:05 | 51.27861 | 6.76377 | 131 ft | 3 kts | 44° |
| 2026-05-05 14:05 | 51.27866 | 6.76385 | 131 ft | 0 kts | 45° |